Airfield :







YOU CAN JOIN US ON...

 
LOGIN :

Register | Disclaimer

   EN    FR    IT 

 









Legend :    VFR   Marginal VFR   IFR   Intensive IFR   Very Intensive IFR
Visi :
Ceiling :
>= 8 km
>= 3000ft
5 to 8 km
1000 to 3000 ft
1500m to 5 km
500 to 1000 ft
800 to 1500m
200 to 500 ft
< 800m
< 200 ft
Symbols :   Thunderstorms  Fog  Heavy snow  Heavy precipitations  Wind > 20 kt






- Airport Elevation : 1188 ft


KCDA - Caledonia County

CURRENT METAR :
  • 140135Z AUTO 11003KT 4SM -SN SCT008 OVC012 00/00 A3022 RMK AO2 T10011005

EXPIRED METARs :
  • 140116Z AUTO 00000KT 2 1/2SM -SN BKN008 OVC012 00/M01 A3023 RMK AO2 T10051008
  • 140055Z AUTO 00000KT 3SM -SN OVC008 M01/M01 A3024 RMK AO2 T10061010
  • 140036Z AUTO 00000KT 7SM -SN OVC008 M01/M01 A3024 RMK AO2 T10061011
  • 140015Z AUTO 14003KT 5SM -SN OVC008 M01/M01 A3025 RMK AO2 T10061011
  • 132356Z AUTO 13004KT 5SM -SN OVC008 M01/M01 A3025 RMK AO2 T10071012 11002 21010
  • 132335Z AUTO 12003KT 2 1/2SM -SN OVC008 M01/M01 A3025 RMK AO2 T10101015
  • 132315Z AUTO 12003KT 1 3/4SM -SN SCT003 OVC008 M01/M02 A3026 RMK AO2 T10101016
  • 132255Z AUTO 14003KT 2SM -SN OVC010 M01/M02 A3027 RMK AO2 T10091018

TAF N/A



MET'MAP, your aeronautical weather chart ! - Copyright ORBIFLY December 2007 - Disclaimer

ORBIFLY MET'MAP TEAM :

Programming & Development : Alexandra Zaïnal
Concept & original design : Baudouin d'Aumeries
Assistance for programming : Marc-Olivier Méhu
Technical & hardware support : Manuel Goepfert

Contact : metmap@orbifly.com




SOURCES & CREDITS :

   NOAA